Time;durP1;ratioP1;P1;durP2;ratioP2;P2;SDS_P1;SDS_P2;PMS_P1;PMS_P2;Temp;Humidity;BMP_temperature;BMP_pressure;BME280_temperature;BME280_humidity;BME280_pressure;Samples;Min_cycle;Max_cycle;Signal;HPM_P1;HPM_P2
2023/12/31 00:00:33;;;;;;;15.35;5.30;;;;;;;;;;5073565;28;20138;-62
2023/12/31 00:02:59;;;;;;;17.60;5.22;;;;;;;;;;5055678;28;20039;-60
2023/12/31 00:05:27;;;;;;;14.43;5.03;;;;;;;;;;5055825;28;20107;-60
2023/12/31 00:07:53;;;;;;;16.08;4.80;;;;;;;;;;5072897;28;20401;-59
2023/12/31 00:10:19;;;;;;;25.15;5.80;;;;;;;;;;5071373;28;20040;-60
2023/12/31 00:12:45;;;;;;;;;;;;;;;;;;5056245;28;20067;-60
2023/12/31 00:15:11;;;;;;;15.68;4.43;;;;;;;;;;5062893;28;19904;-60
2023/12/31 00:17:37;;;;;;;24.65;5.95;;;;;;;;;;5057906;28;20044;-60
2023/12/31 00:20:03;;;;;;;20.83;5.18;;;;;;;;;;5067710;28;20044;-59
2023/12/31 00:22:30;;;;;;;18.27;5.28;;;;;;;;;;5065128;28;20037;-60
2023/12/31 00:24:56;;;;;;;16.65;4.53;;;;;;;;;;5066259;28;20104;-60
2023/12/31 00:27:22;;;;;;;;;;;;;;;;;;5062667;28;20017;-60
2023/12/31 00:29:48;;;;;;;16.30;4.95;;;;;;;;;;5054652;28;19951;-59
2023/12/31 00:32:14;;;;;;;15.38;4.38;;;;;;;;;;5050037;28;20381;-61
2023/12/31 00:34:41;;;;;;;11.50;4.00;;;;;;;;;;5058481;28;20025;-60
2023/12/31 00:37:06;;;;;;;;;;;;;;;;;;5064526;28;20414;-60
2023/12/31 00:39:33;;;;;;;14.15;4.38;;;;;;;;;;5074130;28;19954;-61
2023/12/31 00:41:59;;;;;;;19.27;4.13;;;;;;;;;;5063899;28;20033;-61
2023/12/31 00:44:24;;;;;;;;;;;;;;;;;;5054778;28;20025;-60
2023/12/31 00:46:51;;;;;;;14.70;4.90;;;;;;;;;;5068582;28;19905;-60
2023/12/31 00:49:17;;;;;;;;;;;;;;;;;;5064485;28;20091;-60
2023/12/31 00:51:43;;;;;;;9.25;3.83;;;;;;;;;;5065661;28;20006;-60
2023/12/31 00:54:08;;;;;;;;;;;;;;;;;;5063649;28;20119;-61
2023/12/31 00:56:35;;;;;;;13.02;4.20;;;;;;;;;;5058526;28;19948;-60
2023/12/31 00:59:02;;;;;;;;;;;;;;;;;;5071257;28;20478;-60
2023/12/31 01:01:28;;;;;;;13.52;3.95;;;;;;;;;;5064628;28;19916;-60
2023/12/31 01:03:54;;;;;;;14.68;3.65;;;;;;;;;;5070671;28;20028;-59
2023/12/31 01:06:20;;;;;;;;;;;;;;;;;;5069769;28;20041;-60
2023/12/31 01:08:46;;;;;;;13.30;3.83;;;;;;;;;;5071050;28;19911;-60
2023/12/31 01:11:12;;;;;;;;;;;;;;;;;;5054781;28;20044;-60
2023/12/31 01:13:38;;;;;;;12.85;3.95;;;;;;;;;;5063535;28;19930;-60
2023/12/31 01:16:05;;;;;;;12.20;3.72;;;;;;;;;;5065924;28;20517;-60
2023/12/31 01:18:31;;;;;;;9.05;3.75;;;;;;;;;;5060456;28;20028;-60
2023/12/31 01:20:57;;;;;;;11.77;3.60;;;;;;;;;;5062321;28;20502;-59
2023/12/31 01:23:23;;;;;;;;;;;;;;;;;;5062759;28;20024;-60
2023/12/31 01:25:49;;;;;;;9.68;3.50;;;;;;;;;;5056600;28;20268;-60
2023/12/31 01:28:15;;;;;;;;;;;;;;;;;;5050034;28;20500;-60
2023/12/31 01:30:41;;;;;;;9.25;3.10;;;;;;;;;;5056510;28;19940;-60
2023/12/31 01:33:07;;;;;;;9.75;3.20;;;;;;;;;;5057812;28;20544;-59
2023/12/31 01:35:33;;;;;;;;;;;;;;;;;;5056779;28;20359;-59
2023/12/31 01:37:59;;;;;;;9.80;3.28;;;;;;;;;;5073483;28;19909;-59
2023/12/31 01:40:25;;;;;;;;;;;;;;;;;;5073084;28;20169;-59
2023/12/31 01:42:51;;;;;;;12.77;3.10;;;;;;;;;;5073223;28;20400;-59
2023/12/31 01:45:17;;;;;;;;;;;;;;;;;;5073269;28;20016;-59
2023/12/31 01:47:43;;;;;;;16.98;3.67;;;;;;;;;;5073329;28;19904;-59
2023/12/31 01:50:09;;;;;;;;;;;;;;;;;;5072843;28;20050;-59
2023/12/31 01:52:35;;;;;;;12.10;3.35;;;;;;;;;;5055201;28;20315;-59
2023/12/31 01:55:01;;;;;;;;;;;;;;;;;;5060062;28;20062;-59
2023/12/31 01:57:30;;;;;;;17.05;3.75;;;;;;;;;;5073120;28;19905;-60
2023/12/31 01:59:56;;;;;;;15.52;3.72;;;;;;;;;;5072210;28;20023;-59
2023/12/31 02:02:23;;;;;;;13.30;3.42;;;;;;;;;;5071817;28;20036;-59
2023/12/31 02:04:49;;;;;;;10.65;3.45;;;;;;;;;;5072321;28;20507;-59
2023/12/31 02:07:15;;;;;;;;;;;;;;;;;;5073098;28;20070;-59
2023/12/31 02:09:41;;;;;;;12.35;3.30;;;;;;;;;;5073045;28;19904;-60
2023/12/31 02:12:07;;;;;;;11.93;3.22;;;;;;;;;;5072739;28;20036;-60
2023/12/31 02:14:33;;;;;;;7.22;2.88;;;;;;;;;;5073023;28;20024;-60
2023/12/31 02:16:59;;;;;;;15.90;3.83;;;;;;;;;;5072814;28;20060;-60
2023/12/31 02:19:25;;;;;;;;;;;;;;;;;;5055122;28;20024;-59
2023/12/31 02:21:52;;;;;;;11.20;3.08;;;;;;;;;;5072609;28;20250;-59
2023/12/31 02:24:20;;;;;;;12.38;3.40;;;;;;;;;;5072017;28;20025;-59
2023/12/31 02:26:46;;;;;;;11.02;2.75;;;;;;;;;;5072896;28;20020;-59
2023/12/31 02:29:12;;;;;;;11.80;3.50;;;;;;;;;;5072090;28;20082;-59
2023/12/31 02:31:38;;;;;;;;;;;;;;;;;;5073451;28;20032;-59
2023/12/31 02:34:05;;;;;;;10.13;2.80;;;;;;;;;;5068969;28;19912;-59
2023/12/31 02:36:31;;;;;;;6.93;2.72;;;;;;;;;;5063227;28;20020;-59
2023/12/31 02:38:57;;;;;;;16.80;3.22;;;;;;;;;;5068374;28;20078;-59
2023/12/31 02:41:23;;;;;;;;;;;;;;;;;;5057250;28;20036;-59
2023/12/31 02:43:50;;;;;;;11.15;2.92;;;;;;;;;;5058865;28;19911;-59
2023/12/31 02:46:16;;;;;;;10.68;3.13;;;;;;;;;;5054498;28;20420;-59
2023/12/31 02:48:42;;;;;;;;;;;;;;;;;;5054822;28;20020;-59
2023/12/31 02:51:08;;;;;;;7.35;2.22;;;;;;;;;;5072789;28;19904;-59
2023/12/31 02:53:34;;;;;;;10.15;2.67;;;;;;;;;;5067433;28;20386;-59
2023/12/31 02:56:01;;;;;;;9.20;2.45;;;;;;;;;;5063351;28;20479;-59
2023/12/31 02:58:27;;;;;;;8.73;2.42;;;;;;;;;;5071745;28;20025;-59
2023/12/31 03:00:53;;;;;;;11.70;2.58;;;;;;;;;;5072365;28;20040;-59
2023/12/31 03:03:19;;;;;;;;;;;;;;;;;;5072228;28;20045;-59
2023/12/31 03:05:45;;;;;;;9.10;2.40;;;;;;;;;;5072163;28;19905;-59
2023/12/31 03:08:11;;;;;;;;;;;;;;;;;;5072377;28;20404;-59
2023/12/31 03:10:37;;;;;;;10.15;2.47;;;;;;;;;;5072704;28;19991;-59
2023/12/31 03:13:03;;;;;;;;;;;;;;;;;;5072067;28;20023;-59
2023/12/31 03:15:29;;;;;;;11.13;2.63;;;;;;;;;;5072052;28;19991;-59
2023/12/31 03:17:55;;;;;;;10.80;2.60;;;;;;;;;;5072090;28;20021;-59
2023/12/31 03:20:21;;;;;;;;;;;;;;;;;;5071879;28;20035;-59
2023/12/31 03:22:47;;;;;;;8.15;2.30;;;;;;;;;;5071780;28;20289;-59
2023/12/31 03:25:13;;;;;;;8.35;2.10;;;;;;;;;;5071816;28;20025;-59
2023/12/31 03:27:40;;;;;;;;;;;;;;;;;;5072850;28;20032;-59
2023/12/31 03:30:07;;;;;;;12.07;2.58;;;;;;;;;;5075123;28;19927;-59
2023/12/31 03:32:33;;;;;;;8.18;2.20;;;;;;;;;;5075988;28;20492;-59
2023/12/31 03:34:59;;;;;;;14.25;2.20;;;;;;;;;;5063874;28;20113;-59
2023/12/31 03:37:25;;;;;;;;;;;;;;;;;;5070787;28;20037;-60
2023/12/31 03:39:52;;;;;;;10.63;2.30;;;;;;;;;;5055770;28;19916;-59
2023/12/31 03:42:19;;;;;;;12.35;2.40;;;;;;;;;;5044767;28;20048;-59
2023/12/31 03:44:45;;;;;;;7.93;2.67;;;;;;;;;;5055621;28;20090;-59
2023/12/31 03:47:11;;;;;;;9.10;2.05;;;;;;;;;;5065306;28;20017;-59
2023/12/31 03:49:37;;;;;;;9.68;2.58;;;;;;;;;;5063506;28;20037;-59
2023/12/31 03:52:03;;;;;;;;;;;;;;;;;;5061718;28;20111;-59
2023/12/31 03:54:29;;;;;;;8.15;2.33;;;;;;;;;;5058056;28;20346;-59
2023/12/31 03:56:55;;;;;;;12.98;2.33;;;;;;;;;;5057848;28;20016;-59
2023/12/31 03:59:21;;;;;;;7.32;2.05;;;;;;;;;;5066008;28;20035;-59
2023/12/31 04:01:47;;;;;;;;;;;;;;;;;;5058386;28;20159;-59
2023/12/31 04:04:14;;;;;;;5.53;1.90;;;;;;;;;;5071249;28;19939;-59
2023/12/31 04:06:42;;;;;;;6.32;2.15;;;;;;;;;;5059400;28;20162;-59
2023/12/31 04:09:09;;;;;;;6.72;2.05;;;;;;;;;;5046566;28;20424;-59
2023/12/31 04:11:35;;;;;;;7.90;1.75;;;;;;;;;;5056484;28;20049;-59
2023/12/31 04:14:01;;;;;;;;;;;;;;;;;;5055271;28;20092;-59
2023/12/31 04:16:27;;;;;;;7.93;1.98;;;;;;;;;;5059185;28;19951;-59
2023/12/31 04:18:53;;;;;;;;;;;;;;;;;;5072702;28;20048;-60
2023/12/31 04:21:19;;;;;;;5.75;2.10;;;;;;;;;;5062857;28;20364;-59
2023/12/31 04:23:45;;;;;;;;;;;;;;;;;;5059117;28;20026;-60
2023/12/31 04:26:11;;;;;;;6.28;1.88;;;;;;;;;;5074258;28;19912;-60
2023/12/31 04:28:37;;;;;;;;;;;;;;;;;;5074616;28;20048;-59
2023/12/31 04:31:03;;;;;;;12.52;1.90;;;;;;;;;;5074208;28;19905;-59
2023/12/31 04:33:29;;;;;;;8.52;1.95;;;;;;;;;;5074256;28;20028;-59
2023/12/31 04:35:55;;;;;;;5.97;1.92;;;;;;;;;;5060647;28;20084;-59
2023/12/31 04:38:21;;;;;;;7.28;1.90;;;;;;;;;;5074320;28;20025;-59
2023/12/31 04:40:47;;;;;;;;;;;;;;;;;;5074561;28;20028;-59
2023/12/31 04:43:14;;;;;;;7.80;1.95;;;;;;;;;;5074094;28;19904;-59
2023/12/31 04:45:40;;;;;;;6.50;2.35;;;;;;;;;;5071902;28;20078;-59
2023/12/31 04:48:06;;;;;;;8.85;1.90;;;;;;;;;;5059677;28;20044;-59
2023/12/31 04:50:32;;;;;;;9.45;1.63;;;;;;;;;;5065492;28;20047;-60
2023/12/31 04:52:58;;;;;;;7.10;1.60;;;;;;;;;;5069114;28;20025;-60
2023/12/31 04:55:24;;;;;;;8.25;2.10;;;;;;;;;;5073937;28;20078;-60
2023/12/31 04:57:50;;;;;;;7.15;1.40;;;;;;;;;;5073746;28;20067;-59
2023/12/31 05:00:18;;;;;;;8.65;2.05;;;;;;;;;;5073762;28;20424;-59
2023/12/31 05:02:44;;;;;;;7.00;1.67;;;;;;;;;;5055835;28;20382;-59
2023/12/31 05:05:10;;;;;;;;;;;;;;;;;;5074080;28;20021;-59
2023/12/31 05:07:36;;;;;;;6.95;1.45;;;;;;;;;;5073523;28;19957;-59
2023/12/31 05:10:02;;;;;;;;;;;;;;;;;;5072628;28;20466;-59
2023/12/31 05:12:28;;;;;;;3.97;1.58;;;;;;;;;;5073456;28;19912;-59
2023/12/31 05:14:54;;;;;;;;;;;;;;;;;;5056389;28;20017;-59
2023/12/31 05:17:20;;;;;;;5.70;1.52;;;;;;;;;;5073716;28;19904;-59
2023/12/31 05:19:47;;;;;;;6.72;1.80;;;;;;;;;;5062181;28;20088;-59
2023/12/31 05:22:13;;;;;;;7.43;1.50;;;;;;;;;;5073408;28;20102;-59
2023/12/31 05:24:39;;;;;;;4.22;1.02;;;;;;;;;;5073187;28;20052;-59
2023/12/31 05:27:05;;;;;;;5.93;1.40;;;;;;;;;;5073237;28;20034;-59
2023/12/31 05:29:31;;;;;;;5.13;1.58;;;;;;;;;;5073151;28;20090;-59
2023/12/31 05:31:57;;;;;;;3.47;1.27;;;;;;;;;;5073245;28;20032;-59
2023/12/31 05:34:23;;;;;;;6.25;1.40;;;;;;;;;;5056042;28;20025;-59
2023/12/31 05:36:49;;;;;;;6.35;1.60;;;;;;;;;;5066544;28;20055;-59
2023/12/31 05:39:15;;;;;;;7.13;1.70;;;;;;;;;;5073231;28;20033;-59
2023/12/31 05:41:41;;;;;;;5.30;1.58;;;;;;;;;;5072605;28;20355;-59
2023/12/31 05:44:08;;;;;;;5.43;1.70;;;;;;;;;;5059687;28;20386;-59
2023/12/31 05:46:34;;;;;;;10.20;1.52;;;;;;;;;;5072869;28;20037;-59
2023/12/31 05:49:00;;;;;;;7.38;1.45;;;;;;;;;;5061262;28;20029;-59
2023/12/31 05:51:26;;;;;;;7.78;1.70;;;;;;;;;;5072687;28;20508;-59
2023/12/31 05:53:52;;;;;;;7.07;1.95;;;;;;;;;;5072434;28;20470;-59
2023/12/31 05:56:18;;;;;;;9.02;1.95;;;;;;;;;;5072258;28;20499;-59
2023/12/31 05:58:46;;;;;;;6.28;1.83;;;;;;;;;;5060136;28;20032;-59
2023/12/31 06:01:12;;;;;;;9.32;1.70;;;;;;;;;;5072818;28;20031;-59
2023/12/31 06:03:38;;;;;;;;;;;;;;;;;;5072762;28;20024;-59
2023/12/31 06:06:04;;;;;;;7.50;1.42;;;;;;;;;;5072360;28;19926;-59
2023/12/31 06:08:30;;;;;;;;;;;;;;;;;;5073537;28;20426;-59
2023/12/31 06:10:56;;;;;;;6.18;1.95;;;;;;;;;;5072182;28;19908;-59
2023/12/31 06:13:22;;;;;;;11.40;1.75;;;;;;;;;;5054996;28;20490;-58
2023/12/31 06:15:48;;;;;;;6.57;1.38;;;;;;;;;;5072152;28;20516;-58
2023/12/31 06:18:15;;;;;;;11.13;1.73;;;;;;;;;;5072634;28;20097;-58
2023/12/31 06:20:41;;;;;;;7.95;1.55;;;;;;;;;;5070901;28;20067;-59
2023/12/31 06:23:07;;;;;;;13.57;1.90;;;;;;;;;;5052797;28;20029;-59
2023/12/31 06:25:33;;;;;;;6.85;1.83;;;;;;;;;;5036655;28;20485;-58
2023/12/31 06:27:59;;;;;;;10.07;1.70;;;;;;;;;;5064611;28;20017;-58
2023/12/31 06:30:25;;;;;;;14.38;1.92;;;;;;;;;;5067244;28;20071;-58
2023/12/31 06:32:51;;;;;;;;;;;;;;;;;;5072495;28;20389;-58
2023/12/31 06:35:17;;;;;;;7.90;1.42;;;;;;;;;;5053865;28;19905;-58
2023/12/31 06:37:43;;;;;;;6.60;2.33;;;;;;;;;;5072627;28;20377;-58
2023/12/31 06:40:09;;;;;;;8.93;1.77;;;;;;;;;;5054668;28;20496;-58
2023/12/31 06:42:35;;;;;;;16.38;1.80;;;;;;;;;;5071990;28;20036;-58
2023/12/31 06:45:01;;;;;;;6.22;1.30;;;;;;;;;;5053664;28;20040;-58
2023/12/31 06:47:27;;;;;;;11.07;2.03;;;;;;;;;;5072516;28;20051;-58
2023/12/31 06:49:53;;;;;;;;;;;;;;;;;;5072470;28;20076;-58
2023/12/31 06:52:19;;;;;;;5.30;1.17;;;;;;;;;;5072450;28;19911;-58
2023/12/31 06:54:45;;;;;;;6.68;1.70;;;;;;;;;;5058407;28;20120;-58
2023/12/31 06:57:11;;;;;;;;;;;;;;;;;;5054826;28;20079;-58
2023/12/31 06:59:37;;;;;;;6.90;1.30;;;;;;;;;;5072017;28;19904;-58
2023/12/31 07:02:04;;;;;;;8.45;1.52;;;;;;;;;;5054308;28;20028;-58
2023/12/31 07:04:30;;;;;;;8.57;1.38;;;;;;;;;;5074555;28;20028;-58
2023/12/31 07:06:56;;;;;;;4.75;1.27;;;;;;;;;;5057633;28;20382;-58
2023/12/31 07:09:22;;;;;;;;;;;;;;;;;;5076422;28;20020;-58
2023/12/31 07:11:48;;;;;;;6.55;1.67;;;;;;;;;;5075607;28;19917;-58
2023/12/31 07:14:14;;;;;;;8.80;1.23;;;;;;;;;;5075705;28;20059;-58
2023/12/31 07:16:40;;;;;;;;;;;;;;;;;;5076307;28;20025;-58
2023/12/31 07:19:07;;;;;;;3.83;1.02;;;;;;;;;;5075820;28;19904;-58
2023/12/31 07:21:33;;;;;;;2.28;0.82;;;;;;;;;;5074584;28;20056;-58
2023/12/31 07:23:59;;;;;;;3.25;0.77;;;;;;;;;;5074905;28;20043;-58
2023/12/31 07:26:25;;;;;;;;;;;;;;;;;;5076358;28;20028;-58
2023/12/31 07:28:52;;;;;;;4.97;1.20;;;;;;;;;;5075344;28;19904;-58
2023/12/31 07:31:18;;;;;;;3.25;0.95;;;;;;;;;;5058086;28;20378;-58
2023/12/31 07:33:44;;;;;;;3.28;0.93;;;;;;;;;;5074034;28;20029;-58
2023/12/31 07:36:10;;;;;;;;;;;;;;;;;;5055835;28;20493;-58
2023/12/31 07:38:36;;;;;;;8.85;1.02;;;;;;;;;;5059998;28;19999;-58
2023/12/31 07:41:02;;;;;;;3.95;0.82;;;;;;;;;;5075338;28;20043;-58
2023/12/31 07:43:29;;;;;;;8.13;0.82;;;;;;;;;;5061762;28;20037;-58
2023/12/31 07:45:55;;;;;;;4.25;0.95;;;;;;;;;;5074954;28;20025;-58
2023/12/31 07:48:21;;;;;;;8.13;1.42;;;;;;;;;;5075504;28;20373;-58
2023/12/31 07:50:48;;;;;;;8.23;1.08;;;;;;;;;;5074914;28;20122;-58
2023/12/31 07:53:14;;;;;;;2.80;1.05;;;;;;;;;;5074271;28;20032;-58
2023/12/31 07:55:40;;;;;;;7.68;1.75;;;;;;;;;;5075350;28;20033;-58
2023/12/31 07:58:06;;;;;;;11.88;1.38;;;;;;;;;;5074496;28;20107;-58
2023/12/31 08:00:32;;;;;;;5.25;1.02;;;;;;;;;;5074622;28;20024;-58
2023/12/31 08:02:58;;;;;;;2.85;0.95;;;;;;;;;;5074442;28;20512;-58
2023/12/31 08:05:24;;;;;;;8.48;1.27;;;;;;;;;;5074758;28;20539;-59
2023/12/31 08:07:50;;;;;;;;;;;;;;;;;;5074376;28;20036;-59
2023/12/31 08:10:18;;;;;;;6.15;1.05;;;;;;;;;;5074866;28;19912;-58
2023/12/31 08:12:44;;;;;;;4.85;1.60;;;;;;;;;;5074696;28;20104;-58
2023/12/31 08:15:10;;;;;;;17.70;1.80;;;;;;;;;;5065046;28;20501;-58
2023/12/31 08:17:37;;;;;;;6.30;1.15;;;;;;;;;;5056821;28;20029;-58
2023/12/31 08:20:04;;;;;;;6.65;1.48;;;;;;;;;;5065412;28;20435;-58
2023/12/31 08:22:29;;;;;;;;;;;;;;;;;;5070368;28;20079;-58
2023/12/31 08:24:56;;;;;;;7.60;1.67;;;;;;;;;;5074126;28;19951;-58
2023/12/31 08:27:22;;;;;;;9.18;1.70;;;;;;;;;;5073700;28;20032;-57
2023/12/31 08:29:48;;;;;;;5.50;1.52;;;;;;;;;;5074774;28;20382;-58
2023/12/31 08:32:18;;;;;;;7.22;1.42;;;;;;;;;;5073771;28;20325;-58
2023/12/31 08:34:45;;;;;;;7.93;1.50;;;;;;;;;;5065153;28;20057;-58
2023/12/31 08:37:11;;;;;;;15.13;1.55;;;;;;;;;;5070973;28;20044;-58
2023/12/31 08:39:41;;;;;;;;;;;;;;;;;;5074714;28;20044;-58
2023/12/31 08:42:07;;;;;;;4.13;0.85;;;;;;;;;;5070396;28;19912;-58
2023/12/31 08:44:33;;;;;;;2.85;0.90;;;;;;;;;;5054517;28;20025;-58
2023/12/31 08:46:59;;;;;;;7.00;1.45;;;;;;;;;;5071006;28;20024;-58
2023/12/31 08:49:27;;;;;;;3.67;0.95;;;;;;;;;;5073850;28;20109;-59
2023/12/31 08:51:54;;;;;;;7.90;1.50;;;;;;;;;;5073817;28;20100;-58
2023/12/31 08:54:20;;;;;;;4.45;1.15;;;;;;;;;;5070169;28;20052;-58
2023/12/31 08:56:46;;;;;;;;;;;;;;;;;;5074360;28;20032;-58
2023/12/31 08:59:12;;;;;;;3.78;1.15;;;;;;;;;;5061154;28;20203;-58
2023/12/31 09:01:38;;;;;;;3.97;0.90;;;;;;;;;;5070919;28;20041;-59
2023/12/31 09:04:04;;;;;;;;;;;;;;;;;;5061666;28;20115;-58
2023/12/31 09:06:30;;;;;;;6.20;1.17;;;;;;;;;;5073579;28;20396;-58
2023/12/31 09:08:56;;;;;;;;;;;;;;;;;;5056684;28;20031;-58
2023/12/31 09:11:23;;;;;;;3.33;0.67;;;;;;;;;;5073697;28;19904;-58
2023/12/31 09:13:49;;;;;;;10.73;0.88;;;;;;;;;;5074066;28;20052;-58
2023/12/31 09:16:15;;;;;;;4.43;1.10;;;;;;;;;;5073347;28;20406;-58
2023/12/31 09:18:41;;;;;;;5.80;0.98;;;;;;;;;;5072028;28;20082;-58
2023/12/31 09:21:07;;;;;;;4.63;0.98;;;;;;;;;;5053350;28;20077;-58
2023/12/31 09:23:33;;;;;;;3.47;0.80;;;;;;;;;;5074118;28;20107;-58
2023/12/31 09:25:59;;;;;;;7.50;1.52;;;;;;;;;;5086866;28;20028;-58
2023/12/31 09:28:26;;;;;;;7.53;1.23;;;;;;;;;;5093212;28;20035;-59
2023/12/31 09:30:52;;;;;;;10.38;1.55;;;;;;;;;;5093618;28;20103;-59
2023/12/31 09:33:18;;;;;;;9.57;1.30;;;;;;;;;;5093320;28;20024;-58
2023/12/31 09:35:44;;;;;;;9.40;1.50;;;;;;;;;;5081519;28;20436;-58
2023/12/31 09:38:10;;;;;;;4.97;1.15;;;;;;;;;;5093186;28;20024;-58
2023/12/31 09:40:36;;;;;;;2.63;0.82;;;;;;;;;;5093025;28;20020;-59
2023/12/31 09:43:05;;;;;;;;;;;;;;;;;;5093544;28;20103;-59
2023/12/31 09:45:31;;;;;;;6.50;1.10;;;;;;;;;;5093013;28;19908;-59
2023/12/31 09:48:02;;;;;;;6.55;1.05;;;;;;;;;;5092418;28;20376;-59
2023/12/31 09:50:30;;;;;;;9.10;1.55;;;;;;;;;;5093277;28;20065;-59
2023/12/31 09:53:01;;;;;;;6.03;1.30;;;;;;;;;;5092991;28;20040;-58
2023/12/31 09:55:28;;;;;;;7.95;0.82;;;;;;;;;;5079320;28;20024;-58
2023/12/31 09:57:54;;;;;;;9.02;1.10;;;;;;;;;;5093254;28;20016;-58
2023/12/31 10:00:21;;;;;;;5.70;1.30;;;;;;;;;;5092101;28;20498;-58
2023/12/31 10:02:48;;;;;;;13.55;1.08;;;;;;;;;;5078565;28;20037;-59
2023/12/31 10:05:15;;;;;;;11.65;1.20;;;;;;;;;;5079393;28;20381;-58
2023/12/31 10:07:43;;;;;;;7.78;1.33;;;;;;;;;;5092835;28;20028;-59
2023/12/31 10:10:10;;;;;;;3.38;0.90;;;;;;;;;;5092729;28;20036;-59
2023/12/31 10:12:36;;;;;;;4.75;1.00;;;;;;;;;;5092289;28;20054;-58
2023/12/31 10:15:02;;;;;;;;;;;;;;;;;;5085510;28;20512;-58
2023/12/31 10:17:29;;;;;;;3.25;1.13;;;;;;;;;;5086853;28;19908;-58
2023/12/31 10:19:57;;;;;;;5.30;0.98;;;;;;;;;;5093076;28;20050;-58
2023/12/31 10:22:24;;;;;;;5.15;1.20;;;;;;;;;;5074573;28;20048;-59
2023/12/31 10:24:51;;;;;;;6.65;0.90;;;;;;;;;;5072879;28;20039;-59
2023/12/31 10:27:17;;;;;;;7.57;1.35;;;;;;;;;;5070197;28;20029;-60
2023/12/31 10:29:43;;;;;;;4.22;1.38;;;;;;;;;;5061028;28;20040;-59
2023/12/31 10:32:09;;;;;;;;;;;;;;;;;;5072516;28;20041;-59
2023/12/31 10:34:35;;;;;;;26.48;2.80;;;;;;;;;;5064669;28;19905;-58
2023/12/31 10:37:05;;;;;;;14.27;2.10;;;;;;;;;;5052715;28;20466;-58
2023/12/31 10:39:36;;;;;;;6.47;1.20;;;;;;;;;;5065542;28;20024;-58
2023/12/31 10:42:05;;;;;;;7.57;1.48;;;;;;;;;;5073621;28;20060;-58
2023/12/31 10:44:35;;;;;;;14.43;1.40;;;;;;;;;;5066598;28;20381;-59
2023/12/31 10:47:05;;;;;;;6.30;1.15;;;;;;;;;;5076316;28;20021;-58
2023/12/31 10:49:32;;;;;;;9.68;1.13;;;;;;;;;;5076781;28;20025;-58
2023/12/31 10:52:01;;;;;;;3.92;0.90;;;;;;;;;;5075973;28;20170;-58
2023/12/31 10:54:30;;;;;;;7.10;1.65;;;;;;;;;;5073757;28;20093;-58
2023/12/31 10:56:57;;;;;;;4.97;1.05;;;;;;;;;;5073205;28;20385;-62
2023/12/31 10:59:24;;;;;;;2.85;0.88;;;;;;;;;;5071884;28;20040;-62
2023/12/31 11:01:50;;;;;;;2.08;0.65;;;;;;;;;;5061409;28;20033;-61
2023/12/31 11:04:17;;;;;;;;;;;;;;;;;;5059236;28;20021;-61
2023/12/31 11:06:46;;;;;;;3.60;0.60;;;;;;;;;;5069408;28;19920;-61
2023/12/31 11:09:14;;;;;;;1.90;0.63;;;;;;;;;;5067265;28;20024;-61
2023/12/31 11:11:40;;;;;;;5.40;0.60;;;;;;;;;;5068824;28;20016;-61
2023/12/31 11:14:06;;;;;;;;;;;;;;;;;;5073035;28;20433;-62
2023/12/31 11:16:32;;;;;;;2.90;0.63;;;;;;;;;;5057209;28;19908;-62
2023/12/31 11:18:58;;;;;;;;;;;;;;;;;;5076053;28;20028;-61
2023/12/31 11:21:37;;;;;;;3.45;0.70;;;;;;;;;;5073311;28;20426;-61
2023/12/31 11:24:09;;;;;;;7.22;0.73;;;;;;;;;;5096347;28;20031;-61
2023/12/31 11:26:38;;;;;;;5.63;1.15;;;;;;;;;;5092457;28;20048;-61
2023/12/31 11:29:09;;;;;;;4.43;0.63;;;;;;;;;;5093806;28;20032;-61
2023/12/31 11:31:39;;;;;;;3.67;0.65;;;;;;;;;;5094183;28;20032;-61
2023/12/31 11:34:06;;;;;;;1.17;0.40;;;;;;;;;;5089692;28;20052;-61
2023/12/31 11:36:31;;;;;;;;;;;;;;;;;;5084699;28;20028;-61
2023/12/31 11:38:59;;;;;;;1.92;0.50;;;;;;;;;;5093348;28;20452;-61
2023/12/31 11:41:26;;;;;;;4.05;0.75;;;;;;;;;;5093399;28;20061;-61
2023/12/31 11:43:52;;;;;;;2.03;0.50;;;;;;;;;;5077354;28;20378;-61
2023/12/31 11:46:37;;;;;;;2.67;0.82;;;;;;;;;;5086552;28;20032;-61
2023/12/31 11:49:03;;;;;;;4.53;1.00;;;;;;;;;;5075316;28;20036;-61
2023/12/31 11:51:29;;;;;;;5.68;0.90;;;;;;;;;;5089247;28;20074;-61
2023/12/31 11:53:59;;;;;;;2.95;0.70;;;;;;;;;;5095767;28;20020;-61
2023/12/31 11:56:29;;;;;;;5.18;0.88;;;;;;;;;;5092849;28;20477;-61
2023/12/31 11:58:55;;;;;;;2.42;0.70;;;;;;;;;;5084212;28;20493;-61
2023/12/31 12:01:21;;;;;;;;;;;;;;;;;;5093396;28;20076;-61
2023/12/31 12:03:47;;;;;;;1.33;0.68;;;;;;;;;;5083692;28;19950;-61
2023/12/31 12:06:13;;;;;;;;;;;;;;;;;;5095150;28;20028;-62
2023/12/31 12:08:39;;;;;;;5.53;0.70;;;;;;;;;;5095436;28;20030;-61
2023/12/31 12:11:05;;;;;;;;;;;;;;;;;;5095778;28;20032;-61
2023/12/31 12:13:31;;;;;;;0.93;0.40;;;;;;;;;;5095267;28;19911;-61
2023/12/31 12:15:58;;;;;;;3.28;0.98;;;;;;;;;;5094792;28;20058;-61
2023/12/31 12:18:26;;;;;;;1.88;0.60;;;;;;;;;;5094997;28;20031;-61
2023/12/31 12:20:54;;;;;;;1.45;0.57;;;;;;;;;;5089483;28;20083;-61
2023/12/31 12:23:21;;;;;;;5.80;1.00;;;;;;;;;;5073437;28;20028;-61
2023/12/31 12:25:47;;;;;;;3.20;0.77;;;;;;;;;;5074503;28;20124;-61
2023/12/31 12:28:14;;;;;;;5.57;0.98;;;;;;;;;;5074695;28;20031;-61
2023/12/31 12:30:43;;;;;;;5.13;0.63;;;;;;;;;;5060661;28;20032;-61
2023/12/31 12:33:11;;;;;;;2.47;0.73;;;;;;;;;;5072931;28;20021;-61
2023/12/31 12:35:42;;;;;;;3.00;0.68;;;;;;;;;;5060551;28;20050;-61
2023/12/31 12:38:08;;;;;;;3.17;0.95;;;;;;;;;;5063906;28;20462;-61
2023/12/31 12:40:34;;;;;;;2.88;0.57;;;;;;;;;;5067541;28;20052;-61
2023/12/31 12:43:02;;;;;;;;;;;;;;;;;;5065826;28;20024;-61
2023/12/31 12:45:28;;;;;;;3.10;0.70;;;;;;;;;;5073951;28;20332;-61
2023/12/31 12:47:58;;;;;;;3.95;0.80;;;;;;;;;;5074109;28;20377;-61
2023/12/31 12:50:26;;;;;;;4.95;0.73;;;;;;;;;;5073834;28;20078;-61
2023/12/31 12:52:53;;;;;;;3.20;0.90;;;;;;;;;;5073933;28;20036;-61
2023/12/31 12:55:19;;;;;;;2.72;0.70;;;;;;;;;;5074132;28;20116;-61
2023/12/31 12:57:45;;;;;;;;;;;;;;;;;;5061919;28;20466;-61
2023/12/31 13:00:12;;;;;;;3.15;0.52;;;;;;;;;;5059304;28;19911;-61
2023/12/31 13:02:38;;;;;;;2.88;1.35;;;;;;;;;;5072607;28;20043;-61
2023/12/31 13:05:05;;;;;;;3.00;0.43;;;;;;;;;;5060462;28;20029;-61
2023/12/31 13:07:31;;;;;;;3.00;1.00;;;;;;;;;;5073984;28;20029;-61
2023/12/31 13:09:57;;;;;;;;;;;;;;;;;;5073689;28;20012;-61
2023/12/31 13:12:23;;;;;;;2.05;0.68;;;;;;;;;;5055732;28;19954;-61
2023/12/31 13:14:49;;;;;;;2.80;0.75;;;;;;;;;;5072506;28;20074;-61
2023/12/31 13:17:18;;;;;;;2.42;0.75;;;;;;;;;;5073875;28;20082;-61
2023/12/31 13:19:44;;;;;;;1.58;0.40;;;;;;;;;;5073157;28;20025;-61
2023/12/31 13:22:10;;;;;;;;;;;;;;;;;;5073860;28;20064;-61
2023/12/31 13:24:36;;;;;;;3.42;0.65;;;;;;;;;;5073338;28;19908;-61
2023/12/31 13:27:02;;;;;;;2.03;0.60;;;;;;;;;;5073530;28;20024;-61
2023/12/31 13:29:28;;;;;;;2.03;0.60;;;;;;;;;;5072375;28;20521;-61
2023/12/31 13:31:54;;;;;;;2.47;0.95;;;;;;;;;;5072772;28;20028;-61
2023/12/31 13:34:20;;;;;;;1.60;0.60;;;;;;;;;;5065823;28;20025;-61
2023/12/31 13:36:49;;;;;;;;;;;;;;;;;;5066591;28;20029;-61
2023/12/31 13:39:15;;;;;;;3.28;0.50;;;;;;;;;;5066673;28;19905;-61
2023/12/31 13:41:41;;;;;;;2.25;0.65;;;;;;;;;;5058090;28;20036;-61
2023/12/31 13:44:07;;;;;;;;;;;;;;;;;;5060380;28;20373;-61
2023/12/31 13:46:34;;;;;;;4.13;0.90;;;;;;;;;;5059704;28;19905;-61
2023/12/31 13:49:00;;;;;;;2.65;0.88;;;;;;;;;;5060037;28;20370;-61
2023/12/31 13:51:26;;;;;;;2.17;0.75;;;;;;;;;;5073300;28;20036;-61
2023/12/31 13:53:52;;;;;;;;;;;;;;;;;;5073376;28;20025;-61
2023/12/31 13:56:18;;;;;;;4.30;0.82;;;;;;;;;;5072990;28;19908;-61
2023/12/31 13:58:44;;;;;;;;;;;;;;;;;;5073074;28;20074;-61
2023/12/31 14:01:10;;;;;;;4.88;0.98;;;;;;;;;;5072595;28;19920;-61
2023/12/31 14:03:36;;;;;;;;;;;;;;;;;;5073136;28;20029;-61
2023/12/31 14:06:02;;;;;;;3.85;0.95;;;;;;;;;;5072808;28;19905;-61
2023/12/31 14:08:28;;;;;;;2.92;0.75;;;;;;;;;;5072757;28;20029;-61
2023/12/31 14:10:55;;;;;;;1.77;0.75;;;;;;;;;;5072834;28;20461;-61
2023/12/31 14:13:21;;;;;;;3.70;0.88;;;;;;;;;;5054596;28;20064;-59
2023/12/31 14:15:47;;;;;;;;;;;;;;;;;;5061706;28;20020;-60
2023/12/31 14:18:13;;;;;;;2.13;0.60;;;;;;;;;;5063486;28;19978;-60
2023/12/31 14:20:39;;;;;;;2.00;0.68;;;;;;;;;;5065202;28;20055;-59
2023/12/31 14:23:07;;;;;;;3.00;0.60;;;;;;;;;;5058763;28;20479;-60
2023/12/31 14:25:33;;;;;;;2.63;0.70;;;;;;;;;;5038081;28;20032;-59
2023/12/31 14:28:00;;;;;;;4.38;1.17;;;;;;;;;;5072981;28;20048;-59
2023/12/31 14:30:26;;;;;;;4.72;0.70;;;;;;;;;;5072127;28;20036;-60
2023/12/31 14:32:52;;;;;;;4.68;1.00;;;;;;;;;;5072136;28;20039;-60
2023/12/31 14:35:18;;;;;;;6.50;1.00;;;;;;;;;;5069880;28;20028;-60
2023/12/31 14:37:44;;;;;;;3.63;1.00;;;;;;;;;;5071696;28;20031;-60
2023/12/31 14:40:10;;;;;;;;;;;;;;;;;;5072566;28;20085;-60
2023/12/31 14:42:36;;;;;;;4.20;0.90;;;;;;;;;;5067900;28;19920;-60
2023/12/31 14:45:02;;;;;;;3.53;0.93;;;;;;;;;;5071741;28;20386;-60
2023/12/31 14:47:28;;;;;;;3.65;0.75;;;;;;;;;;5071592;28;20040;-60
2023/12/31 14:49:54;;;;;;;;;;;;;;;;;;5071409;28;20401;-60
2023/12/31 14:52:20;;;;;;;2.50;0.70;;;;;;;;;;5050501;28;20042;-60
2023/12/31 14:54:48;;;;;;;2.42;0.70;;;;;;;;;;5068101;28;20090;-60
2023/12/31 14:57:14;;;;;;;2.70;0.90;;;;;;;;;;5066689;28;20031;-60